sensor_id;sensor_type;location;lat;lon;timestamp;pressure;altitude;pressure_sealevel;temperature;humidity
24825;BME280;12910;57.690;11.974;2023-02-25T00:01:08;99095.72;;;0.01;100.00
24825;BME280;12910;57.690;11.974;2023-02-25T00:03:34;99091.53;;;0.01;100.00
24825;BME280;12910;57.690;11.974;2023-02-25T00:06:01;99088.38;;;0.07;100.00
24825;BME280;12910;57.690;11.974;2023-02-25T00:08:27;99088.22;;;0.02;100.00
24825;BME280;12910;57.690;11.974;2023-02-25T00:11:03;99095.94;;;0.07;100.00
24825;BME280;12910;57.690;11.974;2023-02-25T00:13:30;99086.59;;;0.04;100.00
24825;BME280;12910;57.690;11.974;2023-02-25T00:15:56;99100.97;;;0.07;100.00
24825;BME280;12910;57.690;11.974;2023-02-25T00:18:26;99091.81;;;0.09;100.00
24825;BME280;12910;57.690;11.974;2023-02-25T00:20:51;99096.69;;;0.04;100.00
24825;BME280;12910;57.690;11.974;2023-02-25T00:23:17;99098.25;;;0.01;100.00
24825;BME280;12910;57.690;11.974;2023-02-25T00:25:44;99100.75;;;0.01;100.00
24825;BME280;12910;57.690;11.974;2023-02-25T00:28:10;99095.72;;;0.01;100.00
24825;BME280;12910;57.690;11.974;2023-02-25T00:30:37;99112.66;;;0.05;100.00
24825;BME280;12910;57.690;11.974;2023-02-25T00:33:03;99107.53;;;0.02;100.00
24825;BME280;12910;57.690;11.974;2023-02-25T00:35:29;99117.59;;;0.02;100.00
24825;BME280;12910;57.690;11.974;2023-02-25T00:37:55;99123.69;;;0.08;100.00
24825;BME280;12910;57.690;11.974;2023-02-25T00:40:20;99112.44;;;-0.02;100.00
24825;BME280;12910;57.690;11.974;2023-02-25T00:42:45;99113.09;;;-0.07;100.00
24825;BME280;12910;57.690;11.974;2023-02-25T00:45:11;99119.09;;;-0.04;100.00
24825;BME280;12910;57.690;11.974;2023-02-25T00:47:37;99134.31;;;-0.01;100.00
24825;BME280;12910;57.690;11.974;2023-02-25T00:50:05;99129.16;;;-0.04;100.00
24825;BME280;12910;57.690;11.974;2023-02-25T00:52:36;99137.63;;;-0.02;100.00
24825;BME280;12910;57.690;11.974;2023-02-25T00:55:03;99135.00;;;-0.05;100.00
24825;BME280;12910;57.690;11.974;2023-02-25T00:57:29;99133.34;;;-0.04;100.00
24825;BME280;12910;57.690;11.974;2023-02-25T00:59:54;99140.84;;;-0.06;100.00
24825;BME280;12910;57.690;11.974;2023-02-25T01:02:19;99133.22;;;-0.07;100.00
24825;BME280;12910;57.690;11.974;2023-02-25T01:04:45;99147.53;;;-0.06;100.00
24825;BME280;12910;57.690;11.974;2023-02-25T01:07:10;99146.78;;;-0.04;100.00
24825;BME280;12910;57.690;11.974;2023-02-25T01:09:36;99153.50;;;-0.04;100.00
24825;BME280;12910;57.690;11.974;2023-02-25T01:12:01;99154.97;;;-0.09;100.00
24825;BME280;12910;57.690;11.974;2023-02-25T01:14:27;99150.78;;;-0.10;100.00
24825;BME280;12910;57.690;11.974;2023-02-25T01:16:52;99162.66;;;-0.06;100.00
24825;BME280;12910;57.690;11.974;2023-02-25T01:19:23;99161.81;;;-0.07;100.00
24825;BME280;12910;57.690;11.974;2023-02-25T01:21:51;99171.88;;;-0.07;100.00
24825;BME280;12910;57.690;11.974;2023-02-25T01:24:21;99175.06;;;-0.11;100.00
24825;BME280;12910;57.690;11.974;2023-02-25T01:26:49;99179.44;;;-0.07;100.00
24825;BME280;12910;57.690;11.974;2023-02-25T01:29:17;99183.69;;;-0.06;100.00
24825;BME280;12910;57.690;11.974;2023-02-25T01:31:44;99196.16;;;-0.09;100.00
24825;BME280;12910;57.690;11.974;2023-02-25T01:34:12;99196.03;;;-0.12;100.00
24825;BME280;12910;57.690;11.974;2023-02-25T01:36:38;99192.75;;;-0.09;100.00
24825;BME280;12910;57.690;11.974;2023-02-25T01:39:04;99193.13;;;-0.23;100.00
24825;BME280;12910;57.690;11.974;2023-02-25T01:41:31;99191.75;;;-0.14;100.00
24825;BME280;12910;57.690;11.974;2023-02-25T01:44:16;99201.47;;;-0.24;100.00
24825;BME280;12910;57.690;11.974;2023-02-25T01:46:44;99212.47;;;-0.22;100.00
24825;BME280;12910;57.690;11.974;2023-02-25T01:49:31;99206.47;;;-0.25;100.00
24825;BME280;12910;57.690;11.974;2023-02-25T01:52:11;99202.13;;;-0.29;100.00
24825;BME280;12910;57.690;11.974;2023-02-25T01:54:38;99209.44;;;-0.36;100.00
24825;BME280;12910;57.690;11.974;2023-02-25T01:57:09;99216.88;;;-0.39;100.00
24825;BME280;12910;57.690;11.974;2023-02-25T01:59:36;99216.75;;;-0.42;100.00
24825;BME280;12910;57.690;11.974;2023-02-25T02:02:02;99209.91;;;-0.46;100.00
24825;BME280;12910;57.690;11.974;2023-02-25T02:04:29;99228.16;;;-0.52;100.00
24825;BME280;12910;57.690;11.974;2023-02-25T02:06:56;99226.47;;;-0.51;100.00
24825;BME280;12910;57.690;11.974;2023-02-25T02:09:26;99244.72;;;-0.57;100.00
24825;BME280;12910;57.690;11.974;2023-02-25T02:11:52;99234.09;;;-0.50;100.00
24825;BME280;12910;57.690;11.974;2023-02-25T02:14:24;99236.53;;;-0.51;100.00
24825;BME280;12910;57.690;11.974;2023-02-25T02:19:37;99262.59;;;-0.51;100.00
24825;BME280;12910;57.690;11.974;2023-02-25T02:22:30;99258.53;;;-0.47;100.00
24825;BME280;12910;57.690;11.974;2023-02-25T02:30:52;99270.41;;;-0.43;100.00
24825;BME280;12910;57.690;11.974;2023-02-25T02:33:28;99285.28;;;-0.49;100.00
24825;BME280;12910;57.690;11.974;2023-02-25T02:38:46;99271.72;;;-0.53;100.00
24825;BME280;12910;57.690;11.974;2023-02-25T02:41:28;99276.72;;;-0.54;100.00
24825;BME280;12910;57.690;11.974;2023-02-25T02:44:06;99271.72;;;-0.53;100.00
24825;BME280;12910;57.690;11.974;2023-02-25T02:46:38;99269.06;;;-0.56;100.00
24825;BME280;12910;57.690;11.974;2023-02-25T02:49:12;99273.94;;;-0.60;100.00
24825;BME280;12910;57.690;11.974;2023-02-25T02:51:52;99281.38;;;-0.64;100.00
24825;BME280;12910;57.690;11.974;2023-02-25T02:54:24;99303.94;;;-0.65;100.00
24825;BME280;12910;57.690;11.974;2023-02-25T02:56:52;99273.75;;;-0.65;100.00
24825;BME280;12910;57.690;11.974;2023-02-25T02:59:25;99275.84;;;-0.76;100.00
24825;BME280;12910;57.690;11.974;2023-02-25T03:02:00;99294.88;;;-0.83;100.00
24825;BME280;12910;57.690;11.974;2023-02-25T03:04:33;99302.59;;;-0.78;100.00
24825;BME280;12910;57.690;11.974;2023-02-25T03:07:10;99298.44;;;-0.77;100.00
24825;BME280;12910;57.690;11.974;2023-02-25T03:09:46;99300.78;;;-0.82;100.00
24825;BME280;12910;57.690;11.974;2023-02-25T03:12:13;99309.22;;;-0.80;100.00
24825;BME280;12910;57.690;11.974;2023-02-25T03:14:38;99341.63;;;-0.88;100.00
24825;BME280;12910;57.690;11.974;2023-02-25T03:17:06;99308.00;;;-0.90;100.00
24825;BME280;12910;57.690;11.974;2023-02-25T03:22:09;99328.72;;;-0.96;100.00
24825;BME280;12910;57.690;11.974;2023-02-25T03:24:47;99328.72;;;-0.96;100.00
24825;BME280;12910;57.690;11.974;2023-02-25T03:27:35;99336.31;;;-0.94;100.00
24825;BME280;12910;57.690;11.974;2023-02-25T03:30:24;99346.28;;;-0.97;100.00
24825;BME280;12910;57.690;11.974;2023-02-25T03:33:22;99346.72;;;-1.06;100.00
24825;BME280;12910;57.690;11.974;2023-02-25T03:35:45;99357.63;;;-1.05;100.00
24825;BME280;12910;57.690;11.974;2023-02-25T03:38:17;99352.38;;;-1.12;100.00
24825;BME280;12910;57.690;11.974;2023-02-25T03:40:46;99368.25;;;-1.13;100.00
24825;BME280;12910;57.690;11.974;2023-02-25T03:43:21;99374.25;;;-1.09;100.00
24825;BME280;12910;57.690;11.974;2023-02-25T03:45:47;99373.94;;;-1.17;100.00
24825;BME280;12910;57.690;11.974;2023-02-25T03:48:14;99395.03;;;-1.13;100.00
24825;BME280;12910;57.690;11.974;2023-02-25T03:50:50;99403.13;;;-1.20;100.00
24825;BME280;12910;57.690;11.974;2023-02-25T03:53:18;99401.13;;;-1.28;100.00
24825;BME280;12910;57.690;11.974;2023-02-25T03:55:43;99396.81;;;-1.30;100.00
24825;BME280;12910;57.690;11.974;2023-02-25T03:58:09;99410.44;;;-1.25;100.00
24825;BME280;12910;57.690;11.974;2023-02-25T04:00:35;99411.69;;;-1.35;100.00
24825;BME280;12910;57.690;11.974;2023-02-25T04:03:02;99411.34;;;-1.43;100.00
24825;BME280;12910;57.690;11.974;2023-02-25T04:05:28;99437.16;;;-1.47;100.00
24825;BME280;12910;57.690;11.974;2023-02-25T04:07:54;99431.38;;;-1.44;100.00
24825;BME280;12910;57.690;11.974;2023-02-25T04:10:20;99430.59;;;-1.43;100.00
24825;BME280;12910;57.690;11.974;2023-02-25T04:12:46;99442.44;;;-1.41;100.00
24825;BME280;12910;57.690;11.974;2023-02-25T04:15:12;99445.31;;;-1.51;100.00
24825;BME280;12910;57.690;11.974;2023-02-25T04:17:41;99449.88;;;-1.62;100.00
24825;BME280;12910;57.690;11.974;2023-02-25T04:20:07;99460.03;;;-1.59;100.00
24825;BME280;12910;57.690;11.974;2023-02-25T04:22:32;99457.53;;;-1.59;100.00
24825;BME280;12910;57.690;11.974;2023-02-25T04:24:58;99456.88;;;-1.54;100.00
24825;BME280;12910;57.690;11.974;2023-02-25T04:27:23;99462.78;;;-1.54;100.00
24825;BME280;12910;57.690;11.974;2023-02-25T04:29:49;99460.69;;;-1.63;100.00
24825;BME280;12910;57.690;11.974;2023-02-25T04:32:14;99458.72;;;-1.70;100.00
24825;BME280;12910;57.690;11.974;2023-02-25T04:34:39;99466.66;;;-1.61;100.00
24825;BME280;12910;57.690;11.974;2023-02-25T04:37:05;99478.50;;;-1.76;100.00
24825;BME280;12910;57.690;11.974;2023-02-25T04:39:31;99487.91;;;-1.72;100.00
24825;BME280;12910;57.690;11.974;2023-02-25T04:41:57;99480.53;;;-1.69;100.00
24825;BME280;12910;57.690;11.974;2023-02-25T04:44:23;99501.69;;;-1.64;100.00
24825;BME280;12910;57.690;11.974;2023-02-25T04:46:49;99491.06;;;-1.76;100.00
24825;BME280;12910;57.690;11.974;2023-02-25T04:49:18;99494.50;;;-1.74;100.00
24825;BME280;12910;57.690;11.974;2023-02-25T04:51:44;99508.34;;;-1.82;100.00
24825;BME280;12910;57.690;11.974;2023-02-25T04:54:10;99499.97;;;-1.83;100.00
24825;BME280;12910;57.690;11.974;2023-02-25T04:56:37;99499.09;;;-1.83;100.00
24825;BME280;12910;57.690;11.974;2023-02-25T04:59:03;99500.19;;;-1.78;100.00
24825;BME280;12910;57.690;11.974;2023-02-25T05:01:28;99502.59;;;-1.80;100.00
24825;BME280;12910;57.690;11.974;2023-02-25T05:03:56;99509.06;;;-1.85;100.00
24825;BME280;12910;57.690;11.974;2023-02-25T05:06:23;99509.28;;;-1.80;100.00
24825;BME280;12910;57.690;11.974;2023-02-25T05:08:48;99511.88;;;-1.79;100.00
24825;BME280;12910;57.690;11.974;2023-02-25T05:11:15;99513.38;;;-1.82;100.00
24825;BME280;12910;57.690;11.974;2023-02-25T05:13:41;99520.63;;;-1.89;100.00
24825;BME280;12910;57.690;11.974;2023-02-25T05:16:10;99514.56;;;-1.92;100.00
24825;BME280;12910;57.690;11.974;2023-02-25T05:18:37;99525.19;;;-1.98;100.00
24825;BME280;12910;57.690;11.974;2023-02-25T05:21:03;99529.72;;;-1.91;100.00
24825;BME280;12910;57.690;11.974;2023-02-25T05:23:30;99527.34;;;-1.88;100.00
24825;BME280;12910;57.690;11.974;2023-02-25T05:25:55;99525.81;;;-2.02;100.00
24825;BME280;12910;57.690;11.974;2023-02-25T05:28:23;99531.91;;;-1.97;100.00
24825;BME280;12910;57.690;11.974;2023-02-25T05:30:48;99536.38;;;-2.09;100.00
24825;BME280;12910;57.690;11.974;2023-02-25T05:33:16;99541.84;;;-2.00;100.00
24825;BME280;12910;57.690;11.974;2023-02-25T05:35:41;99547.88;;;-1.96;100.00
24825;BME280;12910;57.690;11.974;2023-02-25T05:38:07;99548.59;;;-1.99;100.00
24825;BME280;12910;57.690;11.974;2023-02-25T05:40:32;99545.06;;;-2.02;100.00
24825;BME280;12910;57.690;11.974;2023-02-25T05:43:00;99558.63;;;-1.99;100.00
24825;BME280;12910;57.690;11.974;2023-02-25T05:45:25;99558.41;;;-2.04;100.00
24825;BME280;12910;57.690;11.974;2023-02-25T05:47:51;99562.41;;;-2.07;100.00
24825;BME280;12910;57.690;11.974;2023-02-25T05:50:16;99559.91;;;-2.07;100.00
24825;BME280;12910;57.690;11.974;2023-02-25T05:52:42;99562.81;;;-2.16;100.00
24825;BME280;12910;57.690;11.974;2023-02-25T05:55:08;99563.81;;;-2.12;100.00
24825;BME280;12910;57.690;11.974;2023-02-25T05:57:33;99577.16;;;-2.13;100.00
24825;BME280;12910;57.690;11.974;2023-02-25T05:59:59;99575.88;;;-2.05;100.00
24825;BME280;12910;57.690;11.974;2023-02-25T06:02:25;99575.19;;;-2.19;100.00
24825;BME280;12910;57.690;11.974;2023-02-25T06:04:54;99585.47;;;-2.14;100.00
24825;BME280;12910;57.690;11.974;2023-02-25T06:07:19;99585.16;;;-2.21;100.00
24825;BME280;12910;57.690;11.974;2023-02-25T06:09:45;99591.13;;;-2.18;100.00
24825;BME280;12910;57.690;11.974;2023-02-25T06:12:10;99588.13;;;-2.11;100.00
24825;BME280;12910;57.690;11.974;2023-02-25T06:14:36;99598.97;;;-2.12;100.00
24825;BME280;12910;57.690;11.974;2023-02-25T06:17:01;99601.63;;;-2.09;100.00
24825;BME280;12910;57.690;11.974;2023-02-25T06:19:27;99605.78;;;-2.10;100.00
24825;BME280;12910;57.690;11.974;2023-02-25T06:21:53;99614.09;;;-2.11;100.00
24825;BME280;12910;57.690;11.974;2023-02-25T06:24:19;99614.09;;;-2.11;100.00
24825;BME280;12910;57.690;11.974;2023-02-25T06:26:44;99618.25;;;-2.11;100.00
24825;BME280;12910;57.690;11.974;2023-02-25T06:29:10;99623.50;;;-2.07;100.00
24825;BME280;12910;57.690;11.974;2023-02-25T06:31:35;99622.25;;;-2.15;100.00
24825;BME280;12910;57.690;11.974;2023-02-25T06:34:00;99623.81;;;-2.17;100.00
24825;BME280;12910;57.690;11.974;2023-02-25T06:36:26;99629.88;;;-2.13;100.00
24825;BME280;12910;57.690;11.974;2023-02-25T06:38:51;99628.00;;;-2.17;100.00
24825;BME280;12910;57.690;11.974;2023-02-25T06:41:19;99644.91;;;-2.13;100.00
24825;BME280;12910;57.690;11.974;2023-02-25T06:43:45;99642.66;;;-2.09;100.00
24825;BME280;12910;57.690;11.974;2023-02-25T06:46:17;99640.13;;;-2.09;100.00
24825;BME280;12910;57.690;11.974;2023-02-25T06:48:43;99646.50;;;-2.15;100.00
24825;BME280;12910;57.690;11.974;2023-02-25T06:51:08;99656.69;;;-2.12;100.00
24825;BME280;12910;57.690;11.974;2023-02-25T06:53:37;99659.13;;;-2.14;100.00
24825;BME280;12910;57.690;11.974;2023-02-25T06:56:03;99667.28;;;-2.18;100.00
24825;BME280;12910;57.690;11.974;2023-02-25T06:58:28;99670.03;;;-2.13;100.00
24825;BME280;12910;57.690;11.974;2023-02-25T07:00:54;99663.63;;;-2.08;100.00
24825;BME280;12910;57.690;11.974;2023-02-25T07:03:19;99668.47;;;-2.11;100.00
24825;BME280;12910;57.690;11.974;2023-02-25T07:05:45;99680.06;;;-2.13;100.00
24825;BME280;12910;57.690;11.974;2023-02-25T07:08:10;99682.09;;;-2.06;100.00
24825;BME280;12910;57.690;11.974;2023-02-25T07:10:36;99687.94;;;-2.07;100.00
24825;BME280;12910;57.690;11.974;2023-02-25T07:13:04;99692.31;;;-2.03;100.00
24825;BME280;12910;57.690;11.974;2023-02-25T07:15:30;99685.00;;;-1.98;100.00
24825;BME280;12910;57.690;11.974;2023-02-25T07:17:55;99684.00;;;-2.02;100.00
24825;BME280;12910;57.690;11.974;2023-02-25T07:20:20;99697.34;;;-2.03;100.00
24825;BME280;12910;57.690;11.974;2023-02-25T07:22:46;99704.88;;;-2.03;100.00
24825;BME280;12910;57.690;11.974;2023-02-25T07:25:11;99714.19;;;-2.00;100.00
24825;BME280;12910;57.690;11.974;2023-02-25T07:27:41;99714.44;;;-1.96;100.00
24825;BME280;12910;57.690;11.974;2023-02-25T07:30:07;99731.41;;;-1.92;100.00
24825;BME280;12910;57.690;11.974;2023-02-25T07:32:33;99738.28;;;-1.88;100.00
24825;BME280;12910;57.690;11.974;2023-02-25T07:34:58;99727.47;;;-1.86;100.00
24825;BME280;12910;57.690;11.974;2023-02-25T07:37:24;99731.88;;;-1.82;100.00
24825;BME280;12910;57.690;11.974;2023-02-25T07:39:49;99725.13;;;-1.83;100.00
24825;BME280;12910;57.690;11.974;2023-02-25T07:42:15;99728.75;;;-1.78;100.00
24825;BME280;12910;57.690;11.974;2023-02-25T07:44:40;99732.03;;;-1.79;100.00
24825;BME280;12910;57.690;11.974;2023-02-25T07:47:06;99741.91;;;-1.82;100.00
24825;BME280;12910;57.690;11.974;2023-02-25T07:49:31;99755.56;;;-1.77;100.00
24825;BME280;12910;57.690;11.974;2023-02-25T07:51:56;99752.28;;;-1.76;100.00
24825;BME280;12910;57.690;11.974;2023-02-25T07:54:22;99755.56;;;-1.77;100.00
24825;BME280;12910;57.690;11.974;2023-02-25T07:56:47;99766.56;;;-1.75;100.00
24825;BME280;12910;57.690;11.974;2023-02-25T07:59:15;99763.03;;;-1.79;100.00
24825;BME280;12910;57.690;11.974;2023-02-25T08:01:41;99766.41;;;-1.78;100.00
24825;BME280;12910;57.690;11.974;2023-02-25T08:04:08;99765.63;;;-1.77;100.00
24825;BME280;12910;57.690;11.974;2023-02-25T08:06:35;99777.38;;;-1.76;100.00
24825;BME280;12910;57.690;11.974;2023-02-25T08:09:03;99770.97;;;-1.71;100.00
24825;BME280;12910;57.690;11.974;2023-02-25T08:11:30;99768.59;;;-1.68;100.00
24825;BME280;12910;57.690;11.974;2023-02-25T08:13:55;99778.88;;;-1.63;100.00
24825;BME280;12910;57.690;11.974;2023-02-25T08:16:23;99782.88;;;-1.67;100.00
24825;BME280;12910;57.690;11.974;2023-02-25T08:18:48;99795.00;;;-1.60;100.00
24825;BME280;12910;57.690;11.974;2023-02-25T08:21:16;99795.31;;;-1.53;100.00
24825;BME280;12910;57.690;11.974;2023-02-25T08:23:46;99791.69;;;-1.59;100.00
24825;BME280;12910;57.690;11.974;2023-02-25T08:26:13;99797.03;;;-1.52;100.00
24825;BME280;12910;57.690;11.974;2023-02-25T08:28:42;99788.63;;;-1.53;100.00
24825;BME280;12910;57.690;11.974;2023-02-25T08:31:08;99807.88;;;-1.53;100.00
24825;BME280;12910;57.690;11.974;2023-02-25T08:33:37;99796.16;;;-1.53;100.00
24825;BME280;12910;57.690;11.974;2023-02-25T08:36:23;99812.28;;;-1.49;100.00
24825;BME280;12910;57.690;11.974;2023-02-25T08:38:49;99819.00;;;-1.48;100.00
24825;BME280;12910;57.690;11.974;2023-02-25T08:41:15;99828.22;;;-1.49;100.00
24825;BME280;12910;57.690;11.974;2023-02-25T08:43:41;99820.75;;;-1.47;100.00
24825;BME280;12910;57.690;11.974;2023-02-25T08:46:08;99835.50;;;-1.37;100.00
24825;BME280;12910;57.690;11.974;2023-02-25T08:48:34;99842.91;;;-1.40;100.00
24825;BME280;12910;57.690;11.974;2023-02-25T08:51:04;99842.50;;;-1.31;100.00
24825;BME280;12910;57.690;11.974;2023-02-25T08:53:33;99843.38;;;-1.31;100.00
24825;BME280;12910;57.690;11.974;2023-02-25T08:56:01;99852.50;;;-1.33;100.00
24825;BME280;12910;57.690;11.974;2023-02-25T08:58:27;99857.59;;;-1.31;100.00
24825;BME280;12910;57.690;11.974;2023-02-25T09:00:52;99848.41;;;-1.31;100.00
24825;BME280;12910;57.690;11.974;2023-02-25T09:03:19;99867.25;;;-1.22;100.00
24825;BME280;12910;57.690;11.974;2023-02-25T09:05:50;99859.78;;;-1.21;100.00
24825;BME280;12910;57.690;11.974;2023-02-25T09:08:16;99855.72;;;-1.19;100.00
24825;BME280;12910;57.690;11.974;2023-02-25T09:10:41;99872.91;;;-1.10;100.00
24825;BME280;12910;57.690;11.974;2023-02-25T09:13:06;99873.84;;;-1.08;100.00
24825;BME280;12910;57.690;11.974;2023-02-25T09:15:32;99864.56;;;-1.09;100.00
24825;BME280;12910;57.690;11.974;2023-02-25T09:17:57;99852.78;;;-1.10;100.00
24825;BME280;12910;57.690;11.974;2023-02-25T09:20:23;99866.31;;;-1.08;100.00
24825;BME280;12910;57.690;11.974;2023-02-25T09:22:50;99875.50;;;-1.08;100.00
24825;BME280;12910;57.690;11.974;2023-02-25T09:25:15;99875.66;;;-1.05;100.00
24825;BME280;12910;57.690;11.974;2023-02-25T09:27:41;99875.88;;;-1.01;100.00
24825;BME280;12910;57.690;11.974;2023-02-25T09:30:07;99877.94;;;-0.93;100.00
24825;BME280;12910;57.690;11.974;2023-02-25T09:32:32;99875.25;;;-0.97;100.00
24825;BME280;12910;57.690;11.974;2023-02-25T09:34:58;99865.38;;;-0.93;100.00
24825;BME280;12910;57.690;11.974;2023-02-25T09:37:29;99868.81;;;-0.91;100.00
24825;BME280;12910;57.690;11.974;2023-02-25T09:39:54;99877.75;;;-0.80;100.00
24825;BME280;12910;57.690;11.974;2023-02-25T09:42:26;99873.03;;;-0.74;100.00
24825;BME280;12910;57.690;11.974;2023-02-25T09:44:59;99882.94;;;-0.77;100.00
24825;BME280;12910;57.690;11.974;2023-02-25T09:47:32;99891.56;;;-0.72;100.00
24825;BME280;12910;57.690;11.974;2023-02-25T09:50:11;99883.22;;;-0.71;100.00
24825;BME280;12910;57.690;11.974;2023-02-25T09:52:43;99884.97;;;-0.70;100.00
24825;BME280;12910;57.690;11.974;2023-02-25T09:55:17;99891.66;;;-0.70;100.00
24825;BME280;12910;57.690;11.974;2023-02-25T09:57:51;99908.72;;;-0.65;100.00
24825;BME280;12910;57.690;11.974;2023-02-25T10:00:20;99897.78;;;-0.65;100.00
24825;BME280;12910;57.690;11.974;2023-02-25T10:03:15;99913.88;;;-0.61;100.00
24825;BME280;12910;57.690;11.974;2023-02-25T10:06:02;99915.78;;;-0.57;100.00
24825;BME280;12910;57.690;11.974;2023-02-25T10:11:20;99926.13;;;-0.51;100.00
24825;BME280;12910;57.690;11.974;2023-02-25T10:24:42;99937.28;;;-0.29;100.00
24825;BME280;12910;57.690;11.974;2023-02-25T10:27:18;99924.97;;;-0.23;100.00
24825;BME280;12910;57.690;11.974;2023-02-25T10:29:48;99932.69;;;-0.20;100.00
24825;BME280;12910;57.690;11.974;2023-02-25T10:34:44;99959.53;;;-0.21;100.00
24825;BME280;12910;57.690;11.974;2023-02-25T10:37:34;99950.53;;;-0.16;100.00
24825;BME280;12910;57.690;11.974;2023-02-25T10:40:01;99973.25;;;-0.14;100.00
24825;BME280;12910;57.690;11.974;2023-02-25T10:42:28;99938.53;;;-0.03;100.00
24825;BME280;12910;57.690;11.974;2023-02-25T10:44:54;99957.34;;;0.04;100.00
24825;BME280;12910;57.690;11.974;2023-02-25T10:47:36;99964.94;;;0.05;100.00
24825;BME280;12910;57.690;11.974;2023-02-25T10:50:22;99979.22;;;0.05;100.00
24825;BME280;12910;57.690;11.974;2023-02-25T10:52:52;99976.75;;;0.06;100.00
24825;BME280;12910;57.690;11.974;2023-02-25T10:57:57;99973.66;;;0.12;100.00
24825;BME280;12910;57.690;11.974;2023-02-25T11:00:27;99977.25;;;0.17;100.00
24825;BME280;12910;57.690;11.974;2023-02-25T11:02:53;99969.06;;;0.21;100.00
24825;BME280;12910;57.690;11.974;2023-02-25T11:05:38;99962.34;;;0.22;100.00
24825;BME280;12910;57.690;11.974;2023-02-25T11:08:24;99971.94;;;0.29;100.00
24825;BME280;12910;57.690;11.974;2023-02-25T11:13:39;99984.13;;;0.38;100.00
24825;BME280;12910;57.690;11.974;2023-02-25T11:16:07;99982.19;;;0.50;100.00
24825;BME280;12910;57.690;11.974;2023-02-25T11:18:33;99976.56;;;0.56;100.00
24825;BME280;12910;57.690;11.974;2023-02-25T11:21:04;99989.84;;;0.53;100.00
24825;BME280;12910;57.690;11.974;2023-02-25T11:23:45;99991.75;;;0.57;100.00
24825;BME280;12910;57.690;11.974;2023-02-25T11:26:34;99975.25;;;0.64;100.00
24825;BME280;12910;57.690;11.974;2023-02-25T11:29:09;99995.47;;;0.66;100.00
24825;BME280;12910;57.690;11.974;2023-02-25T11:31:38;99999.53;;;0.62;100.00
24825;BME280;12910;57.690;11.974;2023-02-25T11:34:22;99999.56;;;0.64;100.00
24825;BME280;12910;57.690;11.974;2023-02-25T11:36:49;100001.88;;;0.59;100.00
24825;BME280;12910;57.690;11.974;2023-02-25T11:41:50;99998.09;;;0.49;100.00
24825;BME280;12910;57.690;11.974;2023-02-25T11:44:29;100010.25;;;0.40;100.00
24825;BME280;12910;57.690;11.974;2023-02-25T11:47:30;100006.44;;;0.48;100.00
24825;BME280;12910;57.690;11.974;2023-02-25T11:50:14;100006.50;;;0.50;100.00
24825;BME280;12910;57.690;11.974;2023-02-25T12:00:41;100008.38;;;0.54;100.00
24825;BME280;12910;57.690;11.974;2023-02-25T12:03:47;100006.28;;;0.63;100.00
24825;BME280;12910;57.690;11.974;2023-02-25T12:30:14;100016.81;;;0.72;100.00
24825;BME280;12910;57.690;11.974;2023-02-25T13:01:40;100060.03;;;0.80;100.00
24825;BME280;12910;57.690;11.974;2023-02-25T13:04:44;100066.94;;;0.84;100.00
24825;BME280;12910;57.690;11.974;2023-02-25T13:07:38;100081.34;;;0.87;100.00
24825;BME280;12910;57.690;11.974;2023-02-25T13:10:33;100067.88;;;0.86;100.00
24825;BME280;12910;57.690;11.974;2023-02-25T13:16:28;100081.50;;;0.90;100.00
24825;BME280;12910;57.690;11.974;2023-02-25T13:30:22;100106.16;;;0.96;100.00
24825;BME280;12910;57.690;11.974;2023-02-25T13:32:56;100112.72;;;1.10;100.00
24825;BME280;12910;57.690;11.974;2023-02-25T13:35:43;100102.69;;;1.12;100.00
24825;BME280;12910;57.690;11.974;2023-02-25T13:47:18;100107.09;;;0.98;100.00
24825;BME280;12910;57.690;11.974;2023-02-25T13:55:40;100106.22;;;0.97;100.00
24825;BME280;12910;57.690;11.974;2023-02-25T14:01:11;100125.47;;;1.13;100.00
24825;BME280;12910;57.690;11.974;2023-02-25T14:04:16;100126.47;;;1.17;100.00
24825;BME280;12910;57.690;11.974;2023-02-25T14:09:34;100132.09;;;1.29;100.00
24825;BME280;12910;57.690;11.974;2023-02-25T14:21:07;100161.22;;;1.22;100.00
24825;BME280;12910;57.690;11.974;2023-02-25T14:23:45;100151.78;;;1.18;100.00
24825;BME280;12910;57.690;11.974;2023-02-25T14:26:43;100168.53;;;1.16;100.00
24825;BME280;12910;57.690;11.974;2023-02-25T14:32:23;100154.16;;;1.15;100.00
24825;BME280;12910;57.690;11.974;2023-02-25T14:38:08;100179.25;;;1.12;100.00
24825;BME280;12910;57.690;11.974;2023-02-25T14:40:58;100184.19;;;1.09;100.00
24825;BME280;12910;57.690;11.974;2023-02-25T14:43:33;100194.50;;;1.14;100.00
24825;BME280;12910;57.690;11.974;2023-02-25T14:49:00;100204.94;;;1.21;100.00
24825;BME280;12910;57.690;11.974;2023-02-25T14:59:28;100204.22;;;1.06;100.00
24825;BME280;12910;57.690;11.974;2023-02-25T15:02:20;100214.66;;;0.96;100.00
24825;BME280;12910;57.690;11.974;2023-02-25T15:10:46;100233.94;;;0.77;100.00
24825;BME280;12910;57.690;11.974;2023-02-25T15:21:36;100247.00;;;0.86;100.00
24825;BME280;12910;57.690;11.974;2023-02-25T15:24:03;100259.69;;;0.88;100.00
24825;BME280;12910;57.690;11.974;2023-02-25T15:26:45;100273.09;;;0.87;100.00
24825;BME280;12910;57.690;11.974;2023-02-25T15:32:26;100283.91;;;0.84;100.00
24825;BME280;12910;57.690;11.974;2023-02-25T15:35:03;100278.09;;;0.69;100.00
24825;BME280;12910;57.690;11.974;2023-02-25T15:37:37;100292.75;;;0.76;100.00
24825;BME280;12910;57.690;11.974;2023-02-25T15:42:49;100301.44;;;0.81;100.00
24825;BME280;12910;57.690;11.974;2023-02-25T15:55:42;100320.78;;;0.82;100.00
24825;BME280;12910;57.690;11.974;2023-02-25T16:11:21;100361.31;;;0.52;100.00
24825;BME280;12910;57.690;11.974;2023-02-25T16:13:48;100363.75;;;0.51;100.00
24825;BME280;12910;57.690;11.974;2023-02-25T16:16:14;100375.56;;;0.52;100.00
24825;BME280;12910;57.690;11.974;2023-02-25T16:18:45;100381.41;;;0.51;100.00